Terminal Aerodrome Forecast
Issued by NWS Cleveland, OH

Home | Current Version | Previous Version | Graphics & Text | Print | Product List | Glossary On
Versions: 1 2 3 4 5 6 7 8 9 10 11 12 13 14 15 16 17 18 19 20 21 22
127
FTUS41 KCLE 202339
TAFMFD
TAF
KMFD 202339Z 2100/2124 16008KT P6SM OVC025
      TEMPO 2100/2103 4SM -SHRA BR OVC015
     FM210300 35005KT 4SM BR OVC015
      TEMPO 2103/2106 2SM -SHRA OVC008
     FM211400 33008KT P6SM OVC015
     FM211800 31010KT P6SM SCT035=

USA.gov is the U.S. government's official web portal to all federal, state and local government web resources and services.